createdAt,value
2022-08-04T00:00:07.185Z,99743.91
2022-08-04T00:01:24.901Z,99744.05
2022-08-04T00:02:30.443Z,99754.98
2022-08-04T00:05:06.910Z,99759.38
2022-08-04T00:06:39.632Z,99759.36
2022-08-04T00:08:02.469Z,99753.12
2022-08-04T00:10:22.301Z,99764.77
2022-08-04T00:11:26.363Z,99756.11
2022-08-04T00:12:31.427Z,99759.64
2022-08-04T00:13:36.556Z,99758.81
2022-08-04T00:14:42.989Z,99753.41
2022-08-04T00:15:45.201Z,99759.64
2022-08-04T00:16:47.549Z,99750.72
2022-08-04T00:17:56.257Z,99754.40
2022-08-04T00:20:25.839Z,99757.84
2022-08-04T00:21:29.000Z,99755.23
2022-08-04T00:22:31.553Z,99757.83
2022-08-04T00:24:10.986Z,99755.83
2022-08-04T00:24:39.535Z,99758.38
2022-08-04T00:25:41.974Z,99753.83
2022-08-04T00:26:45.328Z,99755.54
2022-08-04T00:27:48.456Z,99748.18
2022-08-04T00:28:51.194Z,99756.97
2022-08-04T00:29:53.952Z,99747.89
2022-08-04T00:30:56.725Z,99743.48
2022-08-04T00:32:00.151Z,99744.36
2022-08-04T00:33:02.870Z,99750.59
2022-08-04T00:34:05.230Z,99746.03
2022-08-04T00:36:21.320Z,99747.61
2022-08-04T00:37:25.160Z,99748.48
2022-08-04T00:38:27.566Z,99749.31
2022-08-04T00:39:30.528Z,99749.31
2022-08-04T00:42:58.624Z,99755.30
2022-08-04T00:44:06.157Z,99751.73
2022-08-04T00:45:19.005Z,99745.49
2022-08-04T00:46:41.071Z,99748.19
2022-08-04T00:47:49.798Z,99746.48
2022-08-04T00:49:05.068Z,99750.16
2022-08-04T00:52:32.253Z,99752.17
2022-08-04T00:53:11.345Z,99760.39
2022-08-04T00:54:23.780Z,99763.93
2022-08-04T00:55:45.993Z,99766.63
2022-08-04T00:57:04.747Z,99769.47
2022-08-04T00:58:40.727Z,99774.86
2022-08-04T01:00:06.776Z,99770.31
2022-08-04T01:02:28.080Z,99773.45
2022-08-04T01:05:12.149Z,99780.25
2022-08-04T01:06:18.917Z,99777.69
2022-08-04T01:07:30.459Z,99784.79
2022-08-04T01:10:30.286Z,99783.65
2022-08-04T01:11:57.124Z,99775.69
2022-08-04T01:13:07.803Z,99785.91
2022-08-04T01:14:22.829Z,99783.47
2022-08-04T01:17:22.564Z,99786.92
2022-08-04T01:19:44.558Z,99791.58
2022-08-04T01:22:35.493Z,99785.34
2022-08-04T01:25:39.101Z,99787.17
2022-08-04T01:27:01.427Z,99781.64
2022-08-04T01:28:26.298Z,99789.88
2022-08-04T01:30:42.687Z,99784.06
2022-08-04T01:31:54.609Z,99784.45
2022-08-04T01:33:02.210Z,99785.44
2022-08-04T01:34:06.068Z,99787.99
2022-08-04T01:36:27.095Z,99786.05
2022-08-04T01:37:39.465Z,99788.73
2022-08-04T01:38:42.314Z,99786.03
2022-08-04T01:41:09.896Z,99791.02
2022-08-04T01:42:31.989Z,99789.14
2022-08-04T01:43:18.279Z,99783.61
2022-08-04T01:44:20.677Z,99789.00
2022-08-04T01:45:24.400Z,99783.47
2022-08-04T01:46:27.161Z,99787.87
2022-08-04T01:47:30.020Z,99782.48
2022-08-04T01:48:33.090Z,99787.73
2022-08-04T01:49:40.805Z,99781.36
2022-08-04T01:50:41.706Z,99781.50
2022-08-04T01:51:44.577Z,99791.45
2022-08-04T01:52:51.167Z,99792.29
2022-08-04T01:53:53.320Z,99787.59
2022-08-04T01:54:56.178Z,99788.33
2022-08-04T01:55:58.605Z,99787.48
2022-08-04T01:57:01.309Z,99781.08
2022-08-04T01:58:06.581Z,99788.05
2022-08-04T01:59:09.304Z,99795.15
2022-08-04T02:00:16.371Z,99783.38
2022-08-04T02:01:18.627Z,99785.06
2022-08-04T02:02:24.735Z,99787.76
2022-08-04T02:04:21.183Z,99785.94
2022-08-04T02:04:36.070Z,99789.33
2022-08-04T02:06:03.930Z,99786.77
2022-08-04T02:07:04.959Z,99784.81
2022-08-04T02:08:13.966Z,99780.40
2022-08-04T02:09:54.651Z,99786.63
2022-08-04T02:11:08.263Z,99782.11
2022-08-04T02:12:16.071Z,99782.22
2022-08-04T02:13:28.452Z,99781.52
2022-08-04T02:14:40.153Z,99775.29
2022-08-04T02:16:02.564Z,99774.42
2022-08-04T02:17:09.628Z,99778.09
2022-08-04T02:18:21.625Z,99774.56
2022-08-04T02:19:35.289Z,99760.94
2022-08-04T02:20:38.631Z,99773.58
2022-08-04T02:21:42.485Z,99762.79
2022-08-04T02:22:48.582Z,99769.16
2022-08-04T02:23:53.393Z,99765.77
2022-08-04T02:25:00.606Z,99764.61
2022-08-04T02:26:05.000Z,99764.61
2022-08-04T02:27:07.323Z,99761.08
2022-08-04T02:28:13.192Z,99769.02
2022-08-04T02:29:21.593Z,99768.04
2022-08-04T02:30:27.942Z,99770.59
2022-08-04T02:31:32.857Z,99768.62
2022-08-04T02:32:36.357Z,99764.91
2022-08-04T02:33:44.454Z,99770.31
2022-08-04T02:35:02.704Z,99770.31
2022-08-04T02:36:06.101Z,99770.31
2022-08-04T02:37:08.560Z,99766.63
2022-08-04T02:38:25.266Z,99766.33
2022-08-04T02:39:24.582Z,99766.33
2022-08-04T02:40:26.984Z,99765.93
2022-08-04T02:41:30.080Z,99766.77
2022-08-04T02:42:32.814Z,99768.48
2022-08-04T02:43:51.758Z,99767.47
2022-08-04T02:44:40.437Z,99765.64
2022-08-04T02:45:42.735Z,99766.48
2022-08-04T02:46:45.667Z,99764.66
2022-08-04T02:48:30.989Z,99760.11
2022-08-04T02:49:12.426Z,99761.97
2022-08-04T02:50:25.389Z,99762.80
2022-08-04T02:52:45.208Z,99756.44
2022-08-04T02:53:49.610Z,99764.66
2022-08-04T02:54:54.263Z,99750.45
2022-08-04T02:55:56.742Z,99757.55
2022-08-04T02:56:59.899Z,99759.27
2022-08-04T02:58:03.346Z,99754.71
2022-08-04T02:59:07.565Z,99753.00
2022-08-04T03:00:12.588Z,99752.16
2022-08-04T03:01:16.573Z,99754.86
2022-08-04T03:02:22.328Z,99755.70
2022-08-04T03:03:28.849Z,99761.97
2022-08-04T03:04:40.675Z,99765.50
2022-08-04T03:06:10.155Z,99760.95
2022-08-04T03:07:25.408Z,99758.39
2022-08-04T03:08:58.922Z,99760.39
2022-08-04T03:10:23.964Z,99760.39
2022-08-04T03:11:38.877Z,99763.23
2022-08-04T03:13:05.507Z,99766.91
2022-08-04T03:16:01.361Z,99765.93
2022-08-04T03:18:39.030Z,99767.45
2022-08-04T03:20:18.818Z,99765.75
2022-08-04T03:21:48.706Z,99765.86
2022-08-04T03:23:14.741Z,99768.55
2022-08-04T03:26:08.901Z,99770.44
2022-08-04T03:27:38.064Z,99767.86
2022-08-04T03:29:23.607Z,99764.32
2022-08-04T03:32:27.449Z,99760.22
2022-08-04T03:34:05.548Z,99765.73
2022-08-04T03:35:31.982Z,99762.16
2022-08-04T03:36:38.746Z,99767.66
2022-08-04T03:38:11.002Z,99770.25
2022-08-04T03:39:44.714Z,99773.05
2022-08-04T03:41:18.706Z,99769.41
2022-08-04T03:44:07.251Z,99769.43
2022-08-04T03:45:23.633Z,99767.80
2022-08-04T03:46:47.817Z,99768.78
2022-08-04T03:48:11.896Z,99774.03
2022-08-04T03:49:41.083Z,99773.19
2022-08-04T03:50:56.140Z,99771.48
2022-08-04T03:52:08.232Z,99775.89
2022-08-04T03:53:26.976Z,99769.66
2022-08-04T03:54:39.368Z,99768.64
2022-08-04T03:56:20.603Z,99773.05
2022-08-04T03:57:32.287Z,99771.20
2022-08-04T03:58:57.532Z,99776.87
2022-08-04T04:00:07.485Z,99780.55
2022-08-04T04:02:01.242Z,99781.56
2022-08-04T04:03:10.966Z,99783.23
2022-08-04T04:04:35.042Z,99780.55
2022-08-04T04:06:00.297Z,99776.17
2022-08-04T04:07:27.229Z,99780.83
2022-08-04T04:08:39.161Z,99786.08
2022-08-04T04:11:21.873Z,99783.58
2022-08-04T04:12:46.604Z,99777.43
2022-08-04T04:14:07.751Z,99783.66
2022-08-04T04:15:36.245Z,99784.53
2022-08-04T04:16:59.392Z,99784.53
2022-08-04T04:18:41.062Z,99782.68
2022-08-04T04:19:58.549Z,99789.78
2022-08-04T04:21:15.290Z,99785.38
2022-08-04T04:22:39.570Z,99786.22
2022-08-04T04:24:03.871Z,99787.09
2022-08-04T04:25:31.597Z,99788.07
2022-08-04T04:28:44.488Z,99783.58
2022-08-04T04:29:34.491Z,99783.52
2022-08-04T04:30:48.990Z,99783.52
2022-08-04T04:32:18.995Z,99786.95
2022-08-04T04:33:34.378Z,99788.63
2022-08-04T04:34:47.118Z,99787.65
2022-08-04T04:37:35.266Z,99784.88
2022-08-04T04:38:59.412Z,99794.62
2022-08-04T04:40:23.638Z,99797.31
2022-08-04T04:41:38.871Z,99790.06
2022-08-04T04:43:05.712Z,99788.98
2022-08-04T04:45:50.879Z,99790.72
2022-08-04T04:46:57.033Z,99789.98
2022-08-04T04:48:36.159Z,99785.58
2022-08-04T04:50:00.704Z,99794.51
2022-08-04T04:51:26.651Z,99794.37
2022-08-04T04:52:44.533Z,99801.47
2022-08-04T04:54:05.686Z,99797.94
2022-08-04T04:55:15.111Z,99796.92
2022-08-04T04:56:30.191Z,99802.70
2022-08-04T04:57:54.287Z,99806.34
2022-08-04T04:58:39.091Z,99801.05
2022-08-04T04:59:45.857Z,99800.88
2022-08-04T05:02:46.812Z,99796.08
2022-08-04T05:04:01.328Z,99795.90
2022-08-04T05:05:27.770Z,99790.51
2022-08-04T05:07:07.623Z,99798.45
2022-08-04T05:08:45.397Z,99792.08
2022-08-04T05:09:50.666Z,99800.88
2022-08-04T05:11:05.903Z,99805.98
2022-08-04T05:14:08.943Z,99808.58
2022-08-04T05:14:38.595Z,99804.87
2022-08-04T05:15:55.995Z,99796.44
2022-08-04T05:17:08.027Z,99803.47
2022-08-04T05:18:14.138Z,99797.94
2022-08-04T05:19:29.218Z,99799.52
2022-08-04T05:20:37.399Z,99815.44
2022-08-04T05:21:46.338Z,99804.52
2022-08-04T05:23:01.370Z,99802.53
2022-08-04T05:24:05.933Z,99805.22
2022-08-04T05:25:28.005Z,99800.70
2022-08-04T05:26:33.241Z,99801.41
2022-08-04T05:27:41.024Z,99808.52
2022-08-04T05:28:47.079Z,99803.13
2022-08-04T05:29:54.133Z,99806.66
2022-08-04T05:32:13.360Z,99812.71
2022-08-04T05:34:48.857Z,99811.84
2022-08-04T05:36:19.058Z,99810.93
2022-08-04T05:37:05.109Z,99815.48
2022-08-04T05:38:08.753Z,99809.95
2022-08-04T05:40:32.021Z,99813.27
2022-08-04T05:41:45.807Z,99802.59
2022-08-04T05:42:39.521Z,99813.23
2022-08-04T05:43:43.311Z,99812.39
2022-08-04T05:44:50.740Z,99809.42
2022-08-04T05:45:50.828Z,99809.14
2022-08-04T05:46:55.812Z,99817.96
2022-08-04T05:47:59.390Z,99819.67
2022-08-04T05:49:02.537Z,99805.32
2022-08-04T05:50:06.125Z,99818.77
2022-08-04T05:51:08.966Z,99814.19
2022-08-04T05:52:11.527Z,99810.72
2022-08-04T05:53:14.520Z,99824.00
2022-08-04T05:54:17.158Z,99821.86
2022-08-04T05:55:57.116Z,99826.05
2022-08-04T05:56:24.546Z,99817.07
2022-08-04T05:57:27.724Z,99821.70
2022-08-04T05:58:30.282Z,99826.24
2022-08-04T05:59:34.428Z,99834.52
2022-08-04T06:00:41.048Z,99819.14
2022-08-04T06:01:55.909Z,99822.59
2022-08-04T06:03:59.466Z,99828.59
2022-08-04T06:05:01.962Z,99827.27
2022-08-04T06:06:05.551Z,99822.86
2022-08-04T06:07:09.050Z,99829.34
2022-08-04T06:08:13.439Z,99828.02
2022-08-04T06:09:16.247Z,99825.86
2022-08-04T06:10:29.223Z,99827.81
2022-08-04T06:12:45.319Z,99819.51
2022-08-04T06:13:52.920Z,99824.03
2022-08-04T06:14:56.541Z,99825.26
2022-08-04T06:16:00.609Z,99820.53
2022-08-04T06:17:05.539Z,99821.89
2022-08-04T06:18:33.714Z,99823.22
2022-08-04T06:20:00.444Z,99819.45
2022-08-04T06:20:23.135Z,99825.48
2022-08-04T06:21:26.577Z,99825.83
2022-08-04T06:22:29.111Z,99820.33
2022-08-04T06:23:31.273Z,99826.81
2022-08-04T06:24:34.865Z,99829.73
2022-08-04T06:26:53.302Z,99820.36
2022-08-04T06:27:57.450Z,99822.57
2022-08-04T06:28:59.893Z,99824.80
2022-08-04T06:30:02.855Z,99826.58
2022-08-04T06:32:26.931Z,99826.58
2022-08-04T06:32:31.689Z,99827.05
2022-08-04T06:33:15.177Z,99828.38
2022-08-04T06:34:17.484Z,99825.19
2022-08-04T06:35:20.424Z,99826.64
2022-08-04T06:36:22.961Z,99828.09
2022-08-04T06:37:42.580Z,99823.28
2022-08-04T06:38:31.372Z,99822.88
2022-08-04T06:39:33.748Z,99825.20
2022-08-04T06:40:37.361Z,99821.27
2022-08-04T06:42:14.817Z,99819.14
2022-08-04T06:42:47.890Z,99819.02
2022-08-04T06:43:50.169Z,99822.30
2022-08-04T06:44:55.374Z,99826.45
2022-08-04T06:45:57.992Z,99816.41
2022-08-04T06:47:01.461Z,99813.48
2022-08-04T06:48:13.398Z,99819.57
2022-08-04T06:49:17.218Z,99821.99
2022-08-04T06:51:32.711Z,99817.20
2022-08-04T06:51:37.013Z,99808.72
2022-08-04T06:52:30.346Z,99813.13
2022-08-04T06:53:35.189Z,99803.33
2022-08-04T06:54:38.025Z,99812.42
2022-08-04T06:55:40.916Z,99808.99
2022-08-04T06:56:43.478Z,99813.91
2022-08-04T06:57:45.909Z,99813.48
2022-08-04T06:58:48.279Z,99813.72
2022-08-04T06:59:53.374Z,99805.74
2022-08-04T07:00:55.800Z,99812.00
2022-08-04T07:02:00.015Z,99818.23
2022-08-04T07:03:03.184Z,99814.94
2022-08-04T07:04:05.537Z,99805.45
2022-08-04T07:05:08.209Z,99811.06
2022-08-04T07:06:13.974Z,99808.64
2022-08-04T07:07:16.926Z,99809.75
2022-08-04T07:08:20.317Z,99811.61
2022-08-04T07:09:22.696Z,99815.27
2022-08-04T07:10:28.635Z,99808.31
2022-08-04T07:11:44.168Z,99810.29
2022-08-04T07:12:36.825Z,99810.56
2022-08-04T07:13:44.688Z,99803.73
2022-08-04T07:14:44.062Z,99813.62
2022-08-04T07:15:46.984Z,99811.06
2022-08-04T07:16:49.346Z,99818.30
2022-08-04T07:17:52.628Z,99815.61
2022-08-04T07:18:55.199Z,99817.55
2022-08-04T07:19:58.143Z,99818.56
2022-08-04T07:21:01.061Z,99819.41
2022-08-04T07:22:17.614Z,99824.66
2022-08-04T07:23:10.892Z,99820.02
2022-08-04T07:24:15.508Z,99827.08
2022-08-04T07:25:18.180Z,99820.72
2022-08-04T07:26:29.368Z,99824.25
2022-08-04T07:27:48.530Z,99819.88
2022-08-04T07:28:36.730Z,99820.85
2022-08-04T07:29:39.069Z,99823.81
2022-08-04T07:30:41.561Z,99816.58
2022-08-04T07:31:44.371Z,99821.83
2022-08-04T07:32:47.233Z,99827.21
2022-08-04T07:34:17.009Z,99816.58
2022-08-04T07:34:54.897Z,99821.96
2022-08-04T07:36:05.296Z,99816.58
2022-08-04T07:37:03.702Z,99819.27
2022-08-04T07:38:09.620Z,99820.98
2022-08-04T07:39:11.233Z,99815.47
2022-08-04T07:40:16.127Z,99815.34
2022-08-04T07:41:39.294Z,99812.38
2022-08-04T07:42:28.948Z,99813.25
2022-08-04T07:43:31.388Z,99811.53
2022-08-04T07:44:34.929Z,99819.48
2022-08-04T07:45:38.178Z,99812.98
2022-08-04T07:46:41.726Z,99820.80
2022-08-04T07:48:04.723Z,99821.40
2022-08-04T07:48:48.738Z,99816.45
2022-08-04T07:49:57.098Z,99820.72
2022-08-04T07:50:56.129Z,99814.23
2022-08-04T07:51:59.008Z,99822.03
2022-08-04T07:53:52.581Z,99821.80
2022-08-04T07:54:07.853Z,99820.69
2022-08-04T07:55:10.431Z,99816.88
2022-08-04T07:56:13.290Z,99817.62
2022-08-04T07:58:30.187Z,99821.95
2022-08-04T07:59:32.805Z,99819.16
2022-08-04T08:00:35.404Z,99829.84
2022-08-04T08:01:37.775Z,99819.06
2022-08-04T08:04:14.861Z,99811.41
2022-08-04T08:05:18.505Z,99815.06
2022-08-04T08:07:35.314Z,99812.28
2022-08-04T08:08:38.742Z,99819.30
2022-08-04T08:09:41.220Z,99818.32
2022-08-04T08:10:47.813Z,99820.88
2022-08-04T08:12:38.550Z,99819.06
2022-08-04T08:12:56.581Z,99822.45
2022-08-04T08:13:59.360Z,99814.38
2022-08-04T08:15:04.790Z,99820.50
2022-08-04T08:16:07.729Z,99817.81
2022-08-04T08:17:10.066Z,99823.06
2022-08-04T08:18:12.945Z,99815.69
2022-08-04T08:19:15.978Z,99815.55
2022-08-04T08:20:29.660Z,99820.80
2022-08-04T08:21:23.403Z,99821.67
2022-08-04T08:22:25.972Z,99820.56
2022-08-04T08:23:29.840Z,99823.11
2022-08-04T08:24:36.907Z,99824.80
2022-08-04T08:25:40.435Z,99830.19
2022-08-04T08:26:43.581Z,99825.67
2022-08-04T08:27:55.968Z,99829.20
2022-08-04T08:28:51.546Z,99807.92
2022-08-04T08:29:55.072Z,99807.92
2022-08-04T08:30:59.396Z,99820.84
2022-08-04T08:32:08.086Z,99824.28
2022-08-04T08:33:08.952Z,99814.34
2022-08-04T08:34:11.775Z,99817.91
2022-08-04T08:35:16.187Z,99819.45
2022-08-04T08:36:38.525Z,99813.97
2022-08-04T08:39:30.126Z,99813.31
2022-08-04T08:40:42.176Z,99811.55
2022-08-04T08:42:08.333Z,99816.95
2022-08-04T08:44:00.629Z,99811.69
2022-08-04T08:44:38.456Z,99811.69
2022-08-04T08:46:38.872Z,99811.69
2022-08-04T08:48:06.193Z,99811.69
2022-08-04T08:49:03.899Z,99807.04
2022-08-04T08:50:27.141Z,99806.90
2022-08-04T08:51:54.086Z,99801.51
2022-08-04T08:53:22.194Z,99802.48
2022-08-04T08:54:43.896Z,99796.27
2022-08-04T08:56:12.388Z,99806.02
2022-08-04T08:57:35.293Z,99797.94
2022-08-04T08:58:50.865Z,99797.94
2022-08-04T09:00:06.535Z,99808.16
2022-08-04T09:01:25.422Z,99801.47
2022-08-04T09:03:04.781Z,99809.69
2022-08-04T09:04:23.257Z,99807.13
2022-08-04T09:05:27.982Z,99804.58
2022-08-04T09:07:08.217Z,99803.70
2022-08-04T09:08:38.635Z,99811.78
2022-08-04T09:09:50.586Z,99816.20
2022-08-04T09:10:56.474Z,99801.01
2022-08-04T09:12:30.170Z,99808.95
2022-08-04T09:13:35.462Z,99813.50
2022-08-04T09:15:05.438Z,99801.15
2022-08-04T09:16:17.458Z,99807.52
2022-08-04T09:17:29.989Z,99811.22
2022-08-04T09:18:39.629Z,99812.77
2022-08-04T09:19:45.237Z,99813.64
2022-08-04T09:20:57.982Z,99802.72
2022-08-04T09:22:04.327Z,99806.12
2022-08-04T09:23:21.935Z,99807.00
2022-08-04T09:25:02.241Z,99806.86
2022-08-04T09:27:57.235Z,99805.92
2022-08-04T09:29:15.782Z,99811.37
2022-08-04T09:30:28.858Z,99803.43
2022-08-04T09:31:51.546Z,99807.00
2022-08-04T09:33:06.868Z,99808.81
2022-08-04T09:34:22.377Z,99805.28
2022-08-04T09:36:58.275Z,99803.33
2022-08-04T09:38:07.168Z,99806.86
2022-08-04T09:39:31.227Z,99804.02
2022-08-04T09:40:55.194Z,99807.42
2022-08-04T09:42:01.179Z,99805.60
2022-08-04T09:43:29.418Z,99807.18
2022-08-04T09:46:16.980Z,99810.61
2022-08-04T09:47:23.027Z,99808.86
2022-08-04T09:48:29.642Z,99810.58
2022-08-04T09:49:41.688Z,99816.80
2022-08-04T09:50:48.392Z,99805.92
2022-08-04T09:51:57.495Z,99806.62
2022-08-04T09:53:14.683Z,99805.64
2022-08-04T09:54:43.461Z,99805.36
2022-08-04T09:55:53.393Z,99806.09
2022-08-04T09:57:19.804Z,99807.64
2022-08-04T09:58:55.048Z,99812.05
2022-08-04T10:01:22.920Z,99808.72
2022-08-04T10:02:23.451Z,99814.89
2022-08-04T10:03:26.778Z,99807.08
2022-08-04T10:04:31.466Z,99812.47
2022-08-04T10:05:44.870Z,99812.61
2022-08-04T10:07:23.062Z,99803.51
2022-08-04T10:10:36.805Z,99808.44
2022-08-04T10:12:04.357Z,99809.36
2022-08-04T10:13:22.555Z,99811.06
2022-08-04T10:14:57.630Z,99801.27
2022-08-04T10:16:12.879Z,99806.66
2022-08-04T10:17:34.626Z,99806.94
2022-08-04T10:18:56.214Z,99805.36
2022-08-04T10:20:33.992Z,99798.53
2022-08-04T10:21:59.901Z,99803.92
2022-08-04T10:23:17.641Z,99800.39
2022-08-04T10:24:40.311Z,99801.38
2022-08-04T10:26:06.178Z,99798.81
2022-08-04T10:27:15.972Z,99799.66
2022-08-04T10:28:20.544Z,99806.02
2022-08-04T10:29:30.327Z,99800.53
2022-08-04T10:30:34.182Z,99805.92
2022-08-04T10:31:58.556Z,99795.98
2022-08-04T10:33:13.723Z,99799.52
2022-08-04T10:34:20.961Z,99792.30
2022-08-04T10:35:24.931Z,99788.59
2022-08-04T10:36:30.846Z,99787.34
2022-08-04T10:38:10.893Z,99787.34
2022-08-04T10:39:42.181Z,99786.36
2022-08-04T10:40:27.488Z,99790.48
2022-08-04T10:41:36.201Z,99780.44
2022-08-04T10:42:42.583Z,99785.83
2022-08-04T10:44:08.679Z,99783.13
2022-08-04T10:45:18.783Z,99787.51
2022-08-04T10:46:33.735Z,99791.92
2022-08-04T10:47:40.338Z,99786.42
2022-08-04T10:49:06.131Z,99790.83
2022-08-04T10:50:09.637Z,99786.28
2022-08-04T10:51:29.301Z,99790.69
2022-08-04T10:52:47.528Z,99790.83
2022-08-04T10:55:22.364Z,99786.45
2022-08-04T10:56:30.462Z,99793.66
2022-08-04T10:58:54.680Z,99782.77
2022-08-04T11:00:03.824Z,99778.19
2022-08-04T11:01:10.566Z,99775.35
2022-08-04T11:02:34.934Z,99776.93
2022-08-04T11:03:39.929Z,99776.93
2022-08-04T11:04:47.854Z,99775.80
2022-08-04T11:05:56.878Z,99773.84
2022-08-04T11:06:59.408Z,99775.52
2022-08-04T11:08:10.041Z,99769.00
2022-08-04T11:09:13.950Z,99771.56
2022-08-04T11:10:15.306Z,99766.89
2022-08-04T11:11:56.866Z,99772.15
2022-08-04T11:12:43.767Z,99772.00
2022-08-04T11:14:01.822Z,99773.58
2022-08-04T11:15:08.368Z,99776.27
2022-08-04T11:17:41.453Z,99773.30
2022-08-04T11:19:06.138Z,99779.67
2022-08-04T11:20:34.937Z,99778.83
2022-08-04T11:22:52.034Z,99763.50
2022-08-04T11:24:10.506Z,99773.44
2022-08-04T11:25:28.408Z,99769.89
2022-08-04T11:26:53.205Z,99761.81
2022-08-04T11:28:26.280Z,99770.01
2022-08-04T11:29:42.312Z,99758.23
2022-08-04T11:31:00.274Z,99760.79
2022-08-04T11:32:05.688Z,99764.36
2022-08-04T11:33:15.864Z,99764.22
2022-08-04T11:34:23.124Z,99761.38
2022-08-04T11:35:34.171Z,99758.53
2022-08-04T11:36:43.153Z,99764.77
2022-08-04T11:37:51.426Z,99754.71
2022-08-04T11:39:08.866Z,99757.27
2022-08-04T11:40:24.180Z,99751.73
2022-08-04T11:42:57.596Z,99751.30
2022-08-04T11:44:03.825Z,99743.20
2022-08-04T11:46:37.193Z,99744.08
2022-08-04T11:47:55.426Z,99740.39
2022-08-04T11:49:09.646Z,99742.08
2022-08-04T11:51:40.659Z,99739.12
2022-08-04T11:52:42.926Z,99743.64
2022-08-04T11:53:45.182Z,99737.41
2022-08-04T11:54:52.829Z,99742.80
2022-08-04T11:56:06.908Z,99738.25
2022-08-04T11:56:58.923Z,99737.27
2022-08-04T11:58:03.650Z,99739.12
2022-08-04T11:59:06.485Z,99735.55
2022-08-04T12:01:57.013Z,99733.44
2022-08-04T12:04:58.882Z,99743.09
2022-08-04T12:06:21.931Z,99741.38
2022-08-04T12:07:55.733Z,99734.13
2022-08-04T12:09:30.860Z,99737.70
2022-08-04T12:10:42.272Z,99732.42
2022-08-04T12:12:08.907Z,99735.98
2022-08-04T12:13:35.289Z,99743.36
2022-08-04T12:14:44.695Z,99758.84
2022-08-04T12:15:56.736Z,99768.91
2022-08-04T12:17:01.766Z,99780.86
2022-08-04T12:18:11.254Z,99791.91
2022-08-04T12:19:21.913Z,99781.39
2022-08-04T12:20:31.923Z,99771.87
2022-08-04T12:21:37.593Z,99769.33
2022-08-04T12:22:43.230Z,99774.58
2022-08-04T12:23:45.805Z,99779.83
2022-08-04T12:25:00.964Z,99774.29
2022-08-04T12:26:10.826Z,99776.00
2022-08-04T12:29:09.591Z,99764.38
2022-08-04T12:31:00.011Z,99778.70
2022-08-04T12:32:26.089Z,99776.74
2022-08-04T12:35:04.708Z,99771.20
2022-08-04T12:36:19.106Z,99769.48
2022-08-04T12:37:57.706Z,99778.41
2022-08-04T12:39:19.224Z,99774.15
2022-08-04T12:40:29.992Z,99778.84
2022-08-04T12:42:59.813Z,99762.81
2022-08-04T12:44:36.674Z,99771.87
2022-08-04T12:45:15.327Z,99768.48
2022-08-04T12:46:26.835Z,99750.59
2022-08-04T12:47:30.431Z,99762.36
2022-08-04T12:48:35.403Z,99757.70
2022-08-04T12:49:39.015Z,99771.18
2022-08-04T12:50:42.409Z,99772.02
2022-08-04T12:52:06.109Z,99760.39
2022-08-04T12:53:01.968Z,99768.62
2022-08-04T12:53:56.396Z,99770.45
2022-08-04T12:54:58.704Z,99762.50
2022-08-04T12:56:02.359Z,99761.52
2022-08-04T12:57:07.573Z,99755.40
2022-08-04T12:58:13.367Z,99763.48
2022-08-04T12:59:17.886Z,99757.95
2022-08-04T13:02:10.989Z,99759.67
2022-08-04T13:02:42.681Z,99756.83
2022-08-04T13:03:57.762Z,99764.91
2022-08-04T13:05:03.653Z,99764.91
2022-08-04T13:06:06.716Z,99763.23
2022-08-04T13:07:18.672Z,99765.05
2022-08-04T13:08:22.346Z,99766.91
2022-08-04T13:09:28.194Z,99765.20
2022-08-04T13:10:31.356Z,99761.52
2022-08-04T13:11:36.485Z,99764.22
2022-08-04T13:12:39.832Z,99765.05
2022-08-04T13:13:42.443Z,99764.22
2022-08-04T13:14:44.808Z,99766.91
2022-08-04T13:17:21.299Z,99758.55
2022-08-04T13:19:41.398Z,99761.53
2022-08-04T13:20:44.337Z,99774.02
2022-08-04T13:21:50.528Z,99775.00
2022-08-04T13:23:04.840Z,99774.86
2022-08-04T13:24:22.665Z,99773.01
2022-08-04T13:26:40.820Z,99773.01
2022-08-04T13:26:44.109Z,99778.41
2022-08-04T13:27:25.809Z,99773.01
2022-08-04T13:28:28.838Z,99770.31
2022-08-04T13:31:02.013Z,99771.05
2022-08-04T13:32:05.472Z,99777.42
2022-08-04T13:33:08.072Z,99770.45
2022-08-04T13:34:19.208Z,99777.70
2022-08-04T13:35:15.918Z,99771.44
2022-08-04T13:36:18.773Z,99772.16
2022-08-04T13:37:26.818Z,99774.86
2022-08-04T13:38:29.732Z,99773.15
2022-08-04T13:39:32.210Z,99782.11
2022-08-04T13:40:34.852Z,99775.84
2022-08-04T13:41:39.198Z,99783.80
2022-08-04T13:42:46.336Z,99781.83
2022-08-04T13:44:17.892Z,99783.80
2022-08-04T13:44:59.150Z,99779.41
2022-08-04T13:46:27.920Z,99775.00
2022-08-04T13:48:44.061Z,99770.61
2022-08-04T13:50:11.741Z,99770.88
2022-08-04T13:51:17.453Z,99777.11
2022-08-04T13:52:19.822Z,99777.98
2022-08-04T13:53:24.184Z,99774.42
2022-08-04T13:55:48.001Z,99771.45
2022-08-04T13:56:55.723Z,99775.15
2022-08-04T13:58:03.737Z,99779.67
2022-08-04T13:59:08.586Z,99776.27
2022-08-04T14:00:14.206Z,99778.97
2022-08-04T14:01:22.019Z,99766.47
2022-08-04T14:02:30.953Z,99766.75
2022-08-04T14:03:54.037Z,99765.04
2022-08-04T14:04:48.908Z,99765.91
2022-08-04T14:06:12.297Z,99769.59
2022-08-04T14:07:21.214Z,99769.31
2022-08-04T14:09:36.068Z,99770.31
2022-08-04T14:10:40.096Z,99763.33
2022-08-04T14:12:56.979Z,99758.66
2022-08-04T14:14:00.893Z,99756.09
2022-08-04T14:15:06.115Z,99761.77
2022-08-04T14:17:32.110Z,99754.69
2022-08-04T14:18:34.806Z,99755.50
2022-08-04T14:19:49.903Z,99754.66
2022-08-04T14:22:32.465Z,99752.14
2022-08-04T14:23:47.161Z,99750.13
2022-08-04T14:24:45.331Z,99757.94
2022-08-04T14:25:48.609Z,99747.88
2022-08-04T14:26:51.336Z,99751.56
2022-08-04T14:27:55.393Z,99754.54
2022-08-04T14:29:27.421Z,99755.38
2022-08-04T14:30:29.768Z,99754.54
2022-08-04T14:31:32.195Z,99754.54
2022-08-04T14:32:35.718Z,99748.42
2022-08-04T14:34:02.380Z,99741.48
2022-08-04T14:34:45.799Z,99742.61
2022-08-04T14:37:18.431Z,99740.08
2022-08-04T14:38:16.325Z,99743.59
2022-08-04T14:39:19.145Z,99741.87
2022-08-04T14:40:30.805Z,99741.18
2022-08-04T14:41:29.712Z,99736.08
2022-08-04T14:43:57.549Z,99736.34
2022-08-04T14:45:13.118Z,99732.17
2022-08-04T14:46:17.405Z,99735.28
2022-08-04T14:47:32.435Z,99738.41
2022-08-04T14:48:38.557Z,99737.81
2022-08-04T14:49:39.516Z,99746.17
2022-08-04T14:50:44.691Z,99739.22
2022-08-04T14:51:56.351Z,99738.52
2022-08-04T14:53:09.288Z,99743.91
2022-08-04T14:54:18.190Z,99739.49
2022-08-04T14:55:23.828Z,99740.34
2022-08-04T14:56:46.010Z,99735.23
2022-08-04T14:57:34.656Z,99738.90
2022-08-04T14:58:39.985Z,99742.61
2022-08-04T15:01:02.432Z,99743.77
2022-08-04T15:02:08.468Z,99745.55
2022-08-04T15:03:11.142Z,99752.52
2022-08-04T15:04:13.620Z,99745.86
2022-08-04T15:05:55.323Z,99741.06
2022-08-04T15:06:26.727Z,99745.20
2022-08-04T15:07:29.943Z,99742.92
2022-08-04T15:08:32.494Z,99743.38
2022-08-04T15:09:34.859Z,99740.25
2022-08-04T15:10:37.142Z,99741.69
2022-08-04T15:11:43.292Z,99742.30
2022-08-04T15:12:43.837Z,99749.97
2022-08-04T15:13:46.085Z,99744.29
2022-08-04T15:14:48.598Z,99744.04
2022-08-04T15:16:06.191Z,99747.29
2022-08-04T15:16:55.260Z,99737.09
2022-08-04T15:17:57.736Z,99754.70
2022-08-04T15:19:01.242Z,99748.18
2022-08-04T15:20:05.926Z,99749.75
2022-08-04T15:21:08.918Z,99741.52
2022-08-04T15:22:17.546Z,99745.64
2022-08-04T15:23:16.716Z,99744.48